Lake Park, North Carolina
Current Conditions -  °F | °C
As of 12:53 AM on Sunday 23 Nov 2014 (Local Time) from KEQY Reporting Station
Broken Clouds Broken Clouds  
Wind Chill: 44°   Ceiling: 4800
Heat Index: 44°   Visibility: 10mi
Dew Point: 28°   Wind: 0mph
Humidity: 53%   Direction: NA
Pressure: 30.29"   Gusts: NA
Location:  35.0963°N, 80.6145°W
Report Text: KEQY 230553Z AUTO 00000KT 10SM BKN048 07/M02 A3029 RMK AO2 SLP269 T00671022 10067 20044 56010
Loading
Personal Weather Stations






























Interactive Weather Map New forecast layout! Learn more

10-Day Weather Forecast

Advertisements
Track Severe Weather on mobile